createdAt,value
2022-10-29T00:02:39.430Z,20.91
2022-10-29T00:05:42.251Z,20.93
2022-10-29T00:08:46.568Z,20.93
2022-10-29T00:11:49.372Z,20.93
2022-10-29T00:14:52.139Z,20.93
2022-10-29T00:17:55.148Z,20.93
2022-10-29T00:21:02.123Z,20.92
2022-10-29T00:24:07.368Z,20.92
2022-10-29T00:27:10.319Z,20.92
2022-10-29T00:30:14.341Z,20.91
2022-10-29T00:36:27.948Z,20.91
2022-10-29T00:39:33.156Z,20.91
2022-10-29T00:42:35.931Z,20.90
2022-10-29T00:45:43.054Z,20.91
2022-10-29T00:48:49.829Z,20.92
2022-10-29T00:51:53.643Z,20.93
2022-10-29T00:55:00.881Z,20.92
2022-10-29T00:58:04.416Z,20.93
2022-10-29T01:01:07.319Z,20.94
2022-10-29T01:04:11.899Z,20.92
2022-10-29T01:07:14.798Z,20.91
2022-10-29T01:10:26.952Z,20.91
2022-10-29T01:13:43.881Z,20.91
2022-10-29T01:16:52.010Z,20.90
2022-10-29T01:20:26.387Z,20.90
2022-10-29T01:23:57.005Z,20.91
2022-10-29T01:27:29.493Z,20.91
2022-10-29T01:31:06.467Z,20.91
2022-10-29T01:34:18.309Z,20.91
2022-10-29T01:37:29.649Z,20.91
2022-10-29T01:40:36.114Z,20.91
2022-10-29T01:43:45.913Z,20.91
2022-10-29T01:46:56.343Z,20.90
2022-10-29T01:50:03.344Z,20.90
2022-10-29T01:53:07.609Z,20.89
2022-10-29T01:56:10.546Z,20.89
2022-10-29T01:59:23.297Z,20.89
2022-10-29T02:02:56.166Z,20.89
2022-10-29T02:06:08.076Z,20.89
2022-10-29T02:09:18.002Z,20.90
2022-10-29T02:12:25.285Z,20.90
2022-10-29T02:15:34.760Z,20.91
2022-10-29T02:18:43.435Z,20.92
2022-10-29T02:21:46.235Z,20.91
2022-10-29T02:24:49.022Z,20.90
2022-10-29T02:27:51.799Z,20.90
2022-10-29T02:30:54.561Z,20.90
2022-10-29T02:33:58.822Z,20.90
2022-10-29T02:37:01.604Z,20.88
2022-10-29T02:40:05.228Z,20.89
2022-10-29T02:43:08.034Z,20.89
2022-10-29T02:46:12.397Z,20.88
2022-10-29T02:49:16.604Z,20.89
2022-10-29T02:52:19.397Z,20.89
2022-10-29T02:55:22.311Z,20.90
2022-10-29T02:58:25.108Z,20.90
2022-10-29T03:01:28.005Z,20.91
2022-10-29T03:04:32.247Z,20.90
2022-10-29T03:07:36.833Z,20.91
2022-10-29T03:10:39.599Z,20.90
2022-10-29T03:13:42.447Z,20.89
2022-10-29T03:16:45.259Z,20.90
2022-10-29T03:19:49.431Z,20.89
2022-10-29T03:22:52.232Z,20.89
2022-10-29T03:25:56.702Z,20.88
2022-10-29T03:28:59.503Z,20.88
2022-10-29T03:32:02.304Z,20.88
2022-10-29T03:35:07.702Z,20.88
2022-10-29T03:38:10.468Z,20.90
2022-10-29T03:41:13.276Z,20.91
2022-10-29T03:44:16.089Z,20.90
2022-10-29T03:47:18.940Z,20.89
2022-10-29T03:50:23.091Z,20.89
2022-10-29T03:53:26.698Z,20.89
2022-10-29T03:56:29.526Z,20.89
2022-10-29T03:59:32.296Z,20.88
2022-10-29T04:02:35.249Z,20.88
2022-10-29T04:05:39.485Z,20.88
2022-10-29T04:08:42.816Z,20.88
2022-10-29T04:11:45.604Z,20.88
2022-10-29T04:14:48.465Z,20.89
2022-10-29T04:17:52.001Z,20.89
2022-10-29T04:28:41.471Z,20.90
2022-10-29T04:31:12.622Z,20.89
2022-10-29T04:34:15.417Z,20.89
2022-10-29T04:37:19.535Z,20.88
2022-10-29T04:40:24.353Z,20.88
2022-10-29T04:43:27.596Z,20.87
2022-10-29T04:46:30.346Z,20.88
2022-10-29T04:49:33.191Z,20.88
2022-10-29T04:52:37.395Z,20.87
2022-10-29T04:55:41.076Z,20.87
2022-10-29T04:58:43.891Z,20.88
2022-10-29T05:01:46.671Z,20.89
2022-10-29T05:04:49.463Z,20.89
2022-10-29T05:07:59.271Z,20.89
2022-10-29T05:11:03.412Z,20.89
2022-10-29T05:14:06.388Z,20.88
2022-10-29T05:17:09.275Z,20.89
2022-10-29T05:20:12.717Z,20.88
2022-10-29T05:23:16.854Z,20.88
2022-10-29T05:26:19.619Z,20.87
2022-10-29T05:29:22.476Z,20.87
2022-10-29T05:32:25.945Z,20.86
2022-10-29T05:35:29.056Z,20.87
2022-10-29T05:38:34.720Z,20.86
2022-10-29T05:41:37.582Z,20.88
2022-10-29T05:44:41.285Z,20.88
2022-10-29T05:47:45.183Z,20.88
2022-10-29T05:50:50.415Z,20.89
2022-10-29T05:53:54.674Z,20.89
2022-10-29T05:56:59.603Z,20.88
2022-10-29T06:00:02.445Z,20.88
2022-10-29T06:03:18.630Z,20.88
2022-10-29T06:06:22.096Z,20.87
2022-10-29T06:09:27.388Z,20.87
2022-10-29T06:12:34.830Z,20.88
2022-10-29T06:15:39.034Z,20.88
2022-10-29T06:18:42.027Z,20.87
2022-10-29T06:21:44.801Z,20.88
2022-10-29T06:24:49.071Z,20.89
2022-10-29T06:28:00.764Z,20.90
2022-10-29T06:31:03.927Z,20.89
2022-10-29T06:34:06.824Z,20.89
2022-10-29T06:37:09.657Z,20.89
2022-10-29T06:40:13.948Z,20.90
2022-10-29T06:43:16.818Z,20.89
2022-10-29T06:46:19.640Z,20.89
2022-10-29T06:49:22.448Z,20.89
2022-10-29T06:52:25.433Z,20.89
2022-10-29T06:55:29.947Z,20.89
2022-10-29T06:58:32.760Z,20.88
2022-10-29T07:01:36.246Z,20.89
2022-10-29T07:04:39.427Z,20.89
2022-10-29T07:07:42.852Z,20.91
2022-10-29T07:10:51.222Z,20.93
2022-10-29T07:13:54.072Z,20.91
2022-10-29T07:16:56.882Z,20.91
2022-10-29T07:20:00.862Z,20.91
2022-10-29T07:23:04.222Z,20.90
2022-10-29T07:26:08.529Z,20.90
2022-10-29T07:29:12.277Z,20.89
2022-10-29T07:32:15.562Z,20.89
2022-10-29T07:35:19.741Z,20.90
2022-10-29T07:38:22.542Z,20.90
2022-10-29T07:41:26.801Z,20.89
2022-10-29T07:44:29.592Z,20.90
2022-10-29T07:47:32.609Z,20.91
2022-10-29T07:50:37.378Z,20.91
2022-10-29T07:53:41.331Z,20.92
2022-10-29T07:56:47.749Z,20.92
2022-10-29T07:59:51.999Z,20.92
2022-10-29T08:02:55.866Z,20.91
2022-10-29T08:05:58.872Z,20.91
2022-10-29T08:09:01.786Z,20.91
2022-10-29T08:12:07.122Z,20.90
2022-10-29T08:15:10.537Z,20.91
2022-10-29T08:18:17.370Z,20.91
2022-10-29T08:21:20.521Z,20.90
2022-10-29T08:24:23.514Z,20.91
2022-10-29T08:27:28.032Z,20.91
2022-10-29T08:30:31.064Z,20.92
2022-10-29T08:33:33.943Z,20.93
2022-10-29T08:36:37.566Z,20.93
2022-10-29T08:39:40.529Z,20.94
2022-10-29T08:42:54.582Z,20.94
2022-10-29T08:46:00.158Z,20.93
2022-10-29T08:49:07.267Z,20.93
2022-10-29T08:52:19.817Z,20.93
2022-10-29T08:55:28.607Z,20.93
2022-10-29T08:58:38.243Z,20.92
2022-10-29T09:01:42.521Z,20.91
2022-10-29T09:04:45.574Z,20.91
2022-10-29T09:08:02.626Z,20.92
2022-10-29T09:11:19.548Z,20.93
2022-10-29T09:14:37.349Z,20.94
2022-10-29T09:17:51.721Z,20.95
2022-10-29T09:21:02.977Z,20.95
2022-10-29T09:24:14.418Z,20.94
2022-10-29T09:27:23.514Z,20.94
2022-10-29T09:30:30.611Z,20.94
2022-10-29T09:33:33.461Z,20.94
2022-10-29T09:36:36.324Z,20.94
2022-10-29T09:39:43.115Z,20.94
2022-10-29T09:42:48.400Z,20.93
2022-10-29T09:45:58.720Z,20.93
2022-10-29T09:49:11.150Z,20.94
2022-10-29T09:52:19.110Z,20.94
2022-10-29T09:55:25.297Z,20.95
2022-10-29T09:58:29.288Z,20.96
2022-10-29T10:01:33.568Z,20.96
2022-10-29T10:04:41.938Z,20.96
2022-10-29T10:08:06.361Z,20.96
2022-10-29T10:11:09.470Z,20.96
2022-10-29T10:14:18.746Z,20.96
2022-10-29T10:17:22.932Z,20.95
2022-10-29T10:20:32.892Z,20.95
2022-10-29T10:23:44.894Z,20.95
2022-10-29T10:26:47.772Z,20.94
2022-10-29T10:30:12.484Z,20.96
2022-10-29T10:33:27.181Z,20.95
2022-10-29T10:36:30.839Z,20.97
2022-10-29T10:39:39.814Z,20.97
2022-10-29T10:42:47.488Z,20.96
2022-10-29T10:45:56.178Z,20.97
2022-10-29T10:49:04.295Z,20.97
2022-10-29T10:52:19.478Z,20.97
2022-10-29T10:55:27.248Z,20.97
2022-10-29T10:58:36.673Z,20.96
2022-10-29T11:01:43.688Z,20.96
2022-10-29T11:04:54.342Z,20.96
2022-10-29T11:08:05.799Z,20.95
2022-10-29T11:11:13.667Z,20.96
2022-10-29T11:14:24.608Z,20.96
2022-10-29T11:17:30.244Z,20.97
2022-10-29T11:20:37.423Z,20.98
2022-10-29T11:23:50.072Z,20.98
2022-10-29T11:26:59.441Z,20.98
2022-10-29T11:30:07.760Z,20.99
2022-10-29T11:33:21.645Z,20.97
2022-10-29T11:36:31.039Z,20.98
2022-10-29T11:39:44.772Z,20.97
2022-10-29T11:42:47.571Z,20.98
2022-10-29T11:46:00.053Z,20.98
2022-10-29T11:49:14.880Z,20.97
2022-10-29T11:52:33.263Z,20.97
2022-10-29T11:55:46.648Z,20.97
2022-10-29T11:58:55.467Z,20.98
2022-10-29T12:02:09.824Z,20.98
2022-10-29T12:05:18.384Z,21.00
2022-10-29T12:08:38.683Z,20.99
2022-10-29T12:11:46.294Z,21.00
2022-10-29T12:14:55.311Z,20.99
2022-10-29T12:18:05.603Z,20.99
2022-10-29T12:21:16.685Z,20.98
2022-10-29T12:24:33.896Z,20.98
2022-10-29T12:27:46.336Z,20.98
2022-10-29T12:31:04.221Z,20.98
2022-10-29T12:34:14.322Z,20.98
2022-10-29T12:37:25.731Z,20.99
2022-10-29T12:40:33.816Z,20.99
2022-10-29T12:43:40.250Z,21.00
2022-10-29T12:46:48.090Z,21.00
2022-10-29T12:50:02.710Z,21.00
2022-10-29T12:53:14.267Z,21.00
2022-10-29T12:56:19.261Z,21.01
2022-10-29T12:59:34.502Z,21.00
2022-10-29T13:02:47.250Z,20.99
2022-10-29T13:05:50.095Z,20.99
2022-10-29T13:08:57.579Z,21.00
2022-10-29T13:12:03.867Z,20.99
2022-10-29T13:15:15.363Z,20.98
2022-10-29T13:18:23.781Z,20.98
2022-10-29T13:22:15.299Z,20.99
2022-10-29T13:25:51.894Z,21.00
2022-10-29T13:28:56.064Z,21.02
2022-10-29T13:32:04.864Z,21.02
2022-10-29T13:35:43.025Z,21.01
2022-10-29T13:39:07.368Z,21.01
2022-10-29T13:42:13.959Z,21.00
2022-10-29T13:45:17.124Z,21.01
2022-10-29T13:48:26.278Z,21.02
2022-10-29T13:51:38.005Z,21.00
2022-10-29T13:54:43.698Z,21.00
2022-10-29T13:58:03.305Z,21.00
2022-10-29T14:01:10.255Z,21.00
2022-10-29T14:04:23.708Z,21.00
2022-10-29T14:07:34.843Z,21.02
2022-10-29T14:10:46.112Z,21.03
2022-10-29T14:13:51.200Z,21.02
2022-10-29T14:17:15.469Z,21.03
2022-10-29T14:20:24.298Z,21.02
2022-10-29T14:23:29.484Z,21.02
2022-10-29T14:26:35.063Z,21.01
2022-10-29T14:29:38.360Z,21.01
2022-10-29T14:32:41.560Z,21.00
2022-10-29T14:35:45.055Z,21.00
2022-10-29T14:38:52.694Z,21.00
2022-10-29T14:41:56.766Z,21.01
2022-10-29T14:45:03.459Z,21.02
2022-10-29T14:48:10.636Z,21.03
2022-10-29T14:51:20.075Z,21.03
2022-10-29T14:54:27.357Z,21.03
2022-10-29T14:57:34.760Z,21.03
2022-10-29T15:00:38.286Z,21.03
2022-10-29T15:03:41.515Z,21.03
2022-10-29T15:06:44.327Z,21.02
2022-10-29T15:09:48.468Z,21.02
2022-10-29T15:12:52.556Z,21.02
2022-10-29T15:16:00.624Z,21.02
2022-10-29T15:19:03.478Z,21.00
2022-10-29T15:22:09.703Z,21.01
2022-10-29T15:25:26.051Z,21.02
2022-10-29T15:28:30.863Z,21.02
2022-10-29T15:31:44.086Z,21.03
2022-10-29T15:34:49.534Z,21.03
2022-10-29T15:37:53.299Z,21.03
2022-10-29T15:41:31.769Z,21.03
2022-10-29T15:44:37.988Z,21.03
2022-10-29T15:47:42.553Z,21.02
2022-10-29T15:50:47.480Z,21.03
2022-10-29T15:53:50.456Z,21.02
2022-10-29T15:56:54.628Z,21.02
2022-10-29T15:59:57.484Z,21.01
2022-10-29T16:03:11.466Z,21.00
2022-10-29T16:06:16.824Z,21.01
2022-10-29T16:09:21.800Z,21.02
2022-10-29T16:12:26.502Z,21.02
2022-10-29T16:15:29.357Z,21.03
2022-10-29T16:18:32.182Z,21.03
2022-10-29T16:21:35.800Z,21.03
2022-10-29T16:24:38.593Z,21.03
2022-10-29T16:27:43.876Z,21.02
2022-10-29T16:30:55.075Z,21.02
2022-10-29T16:34:00.075Z,21.02
2022-10-29T16:37:02.849Z,21.02
2022-10-29T16:40:06.854Z,21.01
2022-10-29T16:43:11.464Z,21.01
2022-10-29T16:46:14.807Z,21.00
2022-10-29T16:49:17.615Z,21.00
2022-10-29T16:52:21.832Z,21.02
2022-10-29T16:55:27.365Z,21.02
2022-10-29T16:58:31.619Z,21.03
2022-10-29T17:01:34.404Z,21.02
2022-10-29T17:04:37.253Z,21.02
2022-10-29T17:07:40.214Z,21.02
2022-10-29T17:10:43.069Z,21.02
2022-10-29T17:13:47.222Z,21.02
2022-10-29T17:16:50.070Z,21.00
2022-10-29T17:19:53.794Z,21.00
2022-10-29T17:22:56.608Z,21.02
2022-10-29T17:26:00.088Z,21.00
2022-10-29T17:29:04.421Z,21.00
2022-10-29T17:32:08.800Z,21.00
2022-10-29T17:35:11.614Z,21.02
2022-10-29T17:38:14.523Z,21.02
2022-10-29T17:41:17.334Z,21.02
2022-10-29T17:44:21.535Z,21.02
2022-10-29T17:47:24.442Z,21.02
2022-10-29T17:50:27.890Z,21.03
2022-10-29T17:53:32.342Z,21.01
2022-10-29T17:56:35.102Z,21.01
2022-10-29T17:59:39.231Z,21.00
2022-10-29T18:02:42.189Z,21.00
2022-10-29T18:05:45.226Z,20.99
2022-10-29T18:08:48.053Z,20.99
2022-10-29T18:11:51.188Z,20.99
2022-10-29T18:14:55.317Z,21.00
2022-10-29T18:17:59.965Z,21.02
2022-10-29T18:21:02.788Z,21.02
2022-10-29T18:24:06.266Z,21.02
2022-10-29T18:27:09.026Z,21.02
2022-10-29T18:30:13.808Z,21.03
2022-10-29T18:33:16.612Z,21.02
2022-10-29T18:36:19.437Z,21.00
2022-10-29T18:39:22.223Z,21.00
2022-10-29T18:42:25.021Z,20.99
2022-10-29T18:45:29.194Z,20.99
2022-10-29T18:48:32.786Z,21.00
2022-10-29T18:51:35.603Z,21.00
2022-10-29T18:54:38.496Z,20.98
2022-10-29T18:57:41.271Z,21.00
2022-10-29T19:00:45.895Z,21.01
2022-10-29T19:03:50.590Z,21.02
2022-10-29T19:06:55.061Z,21.02
2022-10-29T19:09:57.835Z,21.02
2022-10-29T19:13:00.623Z,21.00
2022-10-29T19:16:06.251Z,21.01
2022-10-29T19:19:12.664Z,20.99
2022-10-29T19:22:15.451Z,20.99
2022-10-29T19:25:18.250Z,20.99
2022-10-29T19:28:21.079Z,20.98
2022-10-29T19:31:27.217Z,20.98
2022-10-29T19:34:30.027Z,20.99
2022-10-29T19:37:32.811Z,20.99
2022-10-29T19:40:35.732Z,20.99
2022-10-29T19:43:38.988Z,21.00
2022-10-29T19:46:43.425Z,21.00
2022-10-29T19:49:46.331Z,21.01
2022-10-29T19:52:50.854Z,21.02
2022-10-29T19:55:53.898Z,20.99
2022-10-29T19:58:56.660Z,20.99
2022-10-29T20:02:01.102Z,20.99
2022-10-29T20:05:04.899Z,20.99
2022-10-29T20:08:11.370Z,20.99
2022-10-29T20:11:17.582Z,20.97
2022-10-29T20:14:22.167Z,20.98
2022-10-29T20:17:31.896Z,20.98
2022-10-29T20:20:34.735Z,20.98
2022-10-29T20:23:38.098Z,20.99
2022-10-29T20:26:40.857Z,21.00
2022-10-29T20:29:43.685Z,21.01
2022-10-29T20:32:48.996Z,21.00
2022-10-29T20:35:54.243Z,20.99
2022-10-29T20:38:57.232Z,21.00
2022-10-29T20:42:00.434Z,20.99
2022-10-29T20:45:03.227Z,20.99
2022-10-29T20:48:07.839Z,20.98
2022-10-29T20:51:11.580Z,20.97
2022-10-29T20:54:14.479Z,20.98
2022-10-29T20:57:17.266Z,20.98
2022-10-29T21:00:20.139Z,20.98
2022-10-29T21:03:24.269Z,20.98
2022-10-29T21:06:27.060Z,20.99
2022-10-29T21:09:29.867Z,21.00
2022-10-29T21:12:32.635Z,21.00
2022-10-29T21:15:36.651Z,20.99
2022-10-29T21:18:41.729Z,21.00
2022-10-29T21:21:44.649Z,21.00
2022-10-29T21:24:47.432Z,20.98
2022-10-29T21:27:54.417Z,20.98
2022-10-29T21:30:57.384Z,20.97
2022-10-29T21:34:01.653Z,20.97
2022-10-29T21:37:04.423Z,20.97
2022-10-29T21:40:08.343Z,20.96
2022-10-29T21:43:11.133Z,20.96
2022-10-29T21:46:13.960Z,20.97
2022-10-29T21:49:18.115Z,20.99
2022-10-29T21:52:20.865Z,20.99
2022-10-29T21:55:23.663Z,20.98
2022-10-29T21:58:27.378Z,20.98
2022-10-29T22:01:30.242Z,20.97
2022-10-29T22:04:34.429Z,20.97
2022-10-29T22:07:37.309Z,20.97
2022-10-29T22:10:40.552Z,20.96
2022-10-29T22:13:43.321Z,20.95
2022-10-29T22:16:46.089Z,20.96
2022-10-29T22:19:50.476Z,20.95
2022-10-29T22:22:53.269Z,20.95
2022-10-29T22:25:56.042Z,20.95
2022-10-29T22:28:59.000Z,20.96
2022-10-29T22:32:01.752Z,20.96
2022-10-29T22:35:06.466Z,20.96
2022-10-29T22:38:09.236Z,20.97
2022-10-29T22:41:13.457Z,20.96
2022-10-29T22:44:16.231Z,20.96
2022-10-29T22:47:19.033Z,20.95
2022-10-29T22:50:23.169Z,20.94
2022-10-29T22:53:25.945Z,20.94
2022-10-29T22:56:30.689Z,20.94
2022-10-29T22:59:33.461Z,20.94
2022-10-29T23:02:36.351Z,20.94
2022-10-29T23:05:40.577Z,20.94
2022-10-29T23:08:44.510Z,20.95
2022-10-29T23:11:47.533Z,20.95
2022-10-29T23:14:50.320Z,20.95
2022-10-29T23:17:54.060Z,20.95
2022-10-29T23:21:02.666Z,20.96
2022-10-29T23:24:05.979Z,20.94
2022-10-29T23:27:08.773Z,20.94
2022-10-29T23:30:12.769Z,20.94
2022-10-29T23:33:15.530Z,20.93
2022-10-29T23:36:21.559Z,20.94
2022-10-29T23:39:24.316Z,20.93
2022-10-29T23:42:27.084Z,20.92
2022-10-29T23:45:29.848Z,20.92
2022-10-29T23:48:32.870Z,20.93
2022-10-29T23:51:37.034Z,20.93
2022-10-29T23:54:39.818Z,20.94
2022-10-29T23:57:42.583Z,20.93
